Latest Weather Observations for Ceduna

IDS60801

Issued at 8:32 pm CDT Tuesday 27 January 2015 (issued every 30 minutes, with the page automatically refreshed every 10 minutes)

About weather observations | Map of weather stations | Latest weather observations for SA | Other Formats
Station Details ID: 018012 Name: CEDUNA AMO Lat: -32.13 Lon: 133.70 Height: 15.3 m
Data from the previous 72 hours. | See also: Recent months at Ceduna
Date/Time
CDT
Temp
°C
App
Temp
°C
Dew
Point
Rel
Hum
%
Delta-T
°C
Wind Press
QNH
hPa
Press
MSL
hPa
Rain
since 9 am
mm
Dir
 
Spd
km/h
Gust
km/h
Spd
kts
Gust
kts
27/08:00pm 18.9 12.8 11.7 63 4.0 S 35 46 19 25 1016.1 1016.0 -
27/07:30pm 19.5 12.7 10.8 57 4.7 S 37 52 20 28 1016.0 1015.9 -
27/07:00pm 19.8 13.7 11.8 60 4.4 S 35 50 19 27 1015.7 1015.6 -
27/06:30pm 20.2 12.8 10.0 52 5.5 S 39 50 21 27 1015.6 1015.5 -
27/06:00pm 20.7 14.2 10.5 52 5.5 S 35 48 19 26 1015.8 1015.7 -
27/05:30pm 20.6 13.5 9.5 49 5.9 S 37 46 20 25 1015.8 1015.7 -
27/05:00pm 20.5 13.4 9.4 49 5.9 S 37 46 20 25 1015.8 1015.7 -
27/04:30pm 21.1 14.2 10.3 50 5.9 S 37 46 20 25 1016.0 1015.9 -
27/04:00pm 21.0 13.5 9.3 47 6.2 S 39 46 21 25 1016.2 1016.1 -
27/03:30pm 21.6 14.5 8.2 42 7.0 S 35 44 19 24 1016.4 1016.3 -
27/01:30pm 21.3 - - - - SSW 33 43 18 23 1016.9 1016.8 0.0
27/01:00pm 22.1 - - - - SSW 32 43 17 23 1017.1 1017.0 0.0
27/12:30pm 21.8 - - - - S 28 39 15 21 1017.6 1017.5 0.0
27/12:00pm 21.5 15.4 6.8 38 7.5 S 28 37 15 20 1017.7 1017.6 0.0
27/11:30am 21.3 16.5 7.5 41 7.1 SSE 22 33 12 18 1018.1 1018.0 0.0
27/11:00am 20.7 15.7 6.4 39 7.2 SE 22 33 12 18 1018.2 1018.1 0.0
27/10:30am 19.9 14.5 6.5 41 6.7 ESE 24 33 13 18 1018.5 1018.4 0.0
27/10:00am 19.5 13.5 7.0 44 6.3 ESE 28 35 15 19 1018.7 1018.6 0.0
27/09:30am 19.1 14.1 8.2 49 5.6 SE 24 32 13 17 1018.7 1018.6 0.0
27/09:00am 17.4 12.1 8.6 56 4.5 SE 26 33 14 18 1018.8 1018.7 0.0
27/08:30am 16.1 11.9 8.4 60 3.9 SE 20 28 11 15 1018.7 1018.6 0.0
27/08:00am 14.0 11.2 8.4 69 2.8 SE 13 19 7 10 1018.2 1018.1 0.0
27/07:30am 11.0 8.6 8.6 85 1.2 SE 11 13 6 7 1017.7 1017.6 0.0
27/07:00am 8.6 6.1 6.7 88 0.9 SE 9 13 5 7 1017.5 1017.4 0.0
27/06:30am 8.2 4.8 5.8 85 1.1 SE 13 13 7 7 1017.2 1017.1 0.0
27/06:00am 8.7 5.7 5.8 82 1.3 SE 11 13 6 7 1017.1 1017.0 0.0
27/05:30am 9.8 6.9 6.6 80 1.5 SE 11 13 6 7 1017.2 1017.1 0.0
27/05:00am 10.6 7.7 6.5 76 1.9 SE 11 13 6 7 1017.0 1016.9 0.0
27/04:30am 11.9 9.5 7.1 72 2.3 SE 9 11 5 6 1016.9 1016.8 0.0
27/04:00am 13.4 10.1 7.9 69 2.7 SE 15 19 8 10 1016.8 1016.7 0.0
27/03:30am 13.9 10.2 8.1 68 2.9 SE 17 20 9 11 1016.7 1016.6 0.0
27/03:00am 14.8 10.8 8.4 65 3.2 SE 19 26 10 14 1016.8 1016.7 0.0
27/02:30am 15.4 11.5 9.4 67 3.1 SE 20 26 11 14 1016.9 1016.8 0.0
27/02:00am 15.8 11.7 10.1 69 3.0 SE 22 28 12 15 1016.9 1016.8 0.0
27/01:30am 15.3 12.4 9.7 69 2.9 SE 15 17 8 9 1017.4 1017.3 0.0
27/01:00am 15.7 12.3 9.3 65 3.3 SE 17 24 9 13 1017.6 1017.5 0.0
27/12:30am 16.4 12.1 9.5 63 3.6 SSE 22 32 12 17 1017.9 1017.8 0.0
 
Date/Time
CDT
Temp
°C
App
Temp
°C
Dew
Point
Rel
Hum
%
Delta-T
°C
Wind Press
QNH
hPa
Press
MSL
hPa
Rain
since 9 am
mm
Dir
 
Spd
km/h
Gust
km/h
Spd
kts
Gust
kts
26/11:30pm 16.5 11.7 10.2 66 3.3 SSE 26 35 14 19 1018.2 1018.1 0.0
26/11:00pm 16.9 11.8 10.5 66 3.4 SSE 28 37 15 20 1018.3 1018.2 0.0
26/10:30pm 17.0 11.9 10.6 66 3.4 SSE 28 41 15 22 1018.3 1018.2 0.0
26/10:00pm 17.2 11.8 10.9 66 3.4 SSE 30 43 16 23 1018.3 1018.2 0.0
26/09:30pm 17.5 12.1 10.8 65 3.6 SSE 30 43 16 23 1018.1 1018.0 0.0
26/09:00pm 17.5 11.4 10.6 64 3.7 SSE 33 43 18 23 1017.9 1017.8 0.0
26/08:30pm 17.8 12.2 10.3 61 4.0 SSE 30 44 16 24 1017.6 1017.5 0.0
26/08:00pm 18.4 12.3 10.6 60 4.2 SSE 33 46 18 25 1017.3 1017.2 0.0
26/07:30pm 19.2 12.2 9.8 54 5.0 S 37 48 20 26 1017.1 1017.0 0.0
26/07:00pm 19.3 12.7 10.1 55 4.9 S 35 46 19 25 1016.9 1016.8 0.0
26/06:30pm 19.9 12.5 8.3 47 6.0 S 37 46 20 25 1016.8 1016.7 0.0
26/06:00pm 20.4 13.6 9.3 49 5.9 S 35 44 19 24 1016.9 1016.8 0.0
26/05:30pm 20.5 13.7 9.4 49 5.9 S 35 48 19 26 1016.9 1016.8 0.0
26/05:00pm 21.9 14.7 7.6 39 7.4 S 35 44 19 24 1017.1 1017.0 0.0
26/04:30pm 20.8 13.6 7.6 42 6.8 S 35 46 19 25 1017.2 1017.1 0.0
26/04:00pm 21.9 15.0 7.1 38 7.6 S 33 44 18 24 1017.4 1017.3 0.0
26/03:30pm 21.5 14.1 6.8 38 7.5 SSW 35 43 19 23 1017.6 1017.5 0.0
26/03:00pm 20.8 13.8 8.6 45 6.4 S 35 46 19 25 1017.6 1017.5 0.0
26/02:30pm 21.7 14.9 7.9 41 7.2 SSW 33 43 18 23 1017.6 1017.5 0.0
26/02:00pm 21.3 14.5 6.7 38 7.4 S 32 39 17 21 1018.0 1017.9 0.0
26/01:30pm 21.3 15.2 6.5 38 7.5 SSW 28 43 15 23 1018.2 1018.1 0.0
26/01:00pm 21.1 15.7 6.4 38 7.4 SSW 24 35 13 19 1018.4 1018.3 0.0
26/12:30pm 20.3 14.0 5.8 38 7.2 SSW 28 35 15 19 1018.6 1018.5 0.0
26/12:00pm 21.3 15.6 5.0 34 8.0 S 24 35 13 19 1018.9 1018.8 0.0
26/11:31am 20.9 14.4 4.7 34 7.9 SSE 28 46 15 25 1019.0 1018.9 0.0
26/11:30am 20.4 14.2 4.5 35 7.7 SSE 26 46 14 25 1019.0 1018.9 0.0
26/11:00am 19.6 14.1 4.1 36 7.4 SSE 22 32 12 17 1018.9 1018.8 0.0
26/10:30am 19.1 13.5 3.3 35 7.4 SE 22 32 12 17 1018.9 1018.8 0.0
26/10:00am 18.3 12.9 2.6 35 7.2 SE 20 30 11 16 1019.0 1018.9 0.0
26/09:30am 17.5 11.5 3.5 39 6.5 SE 24 30 13 16 1019.2 1019.1 0.0
26/09:00am 17.8 12.1 5.1 43 6.1 ESE 24 30 13 16 1018.9 1018.8 0.0
26/08:30am 16.5 11.7 5.4 48 5.3 ESE 20 26 11 14 1018.9 1018.8 0.0
26/08:00am 14.7 10.5 5.6 54 4.3 ESE 17 22 9 12 1018.7 1018.6 0.0
26/07:30am 12.3 8.9 5.9 65 3.0 ESE 13 15 7 8 1018.4 1018.3 0.0
26/07:00am 11.2 7.4 5.6 68 2.6 ESE 15 17 8 9 1018.2 1018.1 0.0
26/06:30am 10.7 7.2 5.5 70 2.4 ESE 13 17 7 9 1017.7 1017.6 0.0
26/06:00am 11.2 7.7 5.3 67 2.7 ESE 13 15 7 8 1017.6 1017.5 0.0
26/05:30am 12.0 8.1 5.5 64 3.0 ESE 15 20 8 11 1017.5 1017.4 0.0
26/05:00am 11.3 7.5 5.9 69 2.5 E 15 17 8 9 1017.4 1017.3 0.0
26/04:30am 11.6 8.2 6.0 68 2.6 E 13 17 7 9 1017.3 1017.2 0.0
26/04:00am 12.1 8.4 6.1 67 2.8 E 15 17 8 9 1017.5 1017.4 0.0
26/03:30am 11.5 8.2 6.6 72 2.3 E 13 15 7 8 1017.3 1017.2 0.0
26/03:00am 11.5 8.2 6.2 70 2.5 E 13 15 7 8 1017.3 1017.2 0.0
26/02:30am 12.7 9.6 7.1 69 2.7 ESE 13 17 7 9 1017.3 1017.2 0.0
26/02:00am 13.0 9.8 7.0 67 2.9 ESE 13 15 7 8 1017.3 1017.2 0.0
26/01:30am 15.8 11.7 7.8 59 4.0 SE 19 26 10 14 1017.3 1017.2 0.0
26/01:00am 15.9 12.4 7.0 55 4.4 SE 15 20 8 11 1017.6 1017.5 0.0
26/12:30am 16.6 12.9 7.9 56 4.4 SSE 17 22 9 12 1017.8 1017.7 0.0
26/12:00am 16.9 12.3 8.0 55 4.5 SSE 22 30 12 16 1017.7 1017.6 0.0
 
Date/Time
CDT
Temp
°C
App
Temp
°C
Dew
Point
Rel
Hum
%
Delta-T
°C
Wind Press
QNH
hPa
Press
MSL
hPa
Rain
since 9 am
mm
Dir
 
Spd
km/h
Gust
km/h
Spd
kts
Gust
kts
25/11:30pm 17.1 11.0 6.8 50 5.1 S 28 39 15 21 1017.9 1017.8 0.0
25/11:00pm 17.3 11.7 7.1 51 5.1 SSE 26 35 14 19 1017.9 1017.8 0.0
25/10:30pm 17.1 12.7 7.5 53 4.8 SSE 20 28 11 15 1018.1 1018.0 0.0
25/10:00pm 17.1 11.8 7.0 51 5.0 SSE 24 32 13 17 1017.8 1017.7 0.0
25/09:30pm 17.3 12.2 6.0 47 5.5 SSE 22 32 12 17 1017.6 1017.5 0.0
25/09:00pm 17.3 11.7 5.2 45 5.8 SSE 24 33 13 18 1017.1 1017.0 0.0
25/08:30pm 17.6 11.7 5.6 45 5.8 S 26 35 14 19 1017.0 1016.9 0.0
25/08:00pm 18.0 11.8 6.2 46 5.8 S 28 35 15 19 1017.0 1016.9 0.0
25/07:30pm 18.9 12.1 5.3 41 6.6 S 30 39 16 21 1016.7 1016.6 0.0
25/07:00pm 19.3 13.1 6.2 42 6.5 S 28 35 15 19 1016.6 1016.5 0.0
25/06:30pm 20.0 14.0 7.2 43 6.5 S 28 37 15 20 1016.6 1016.5 0.0
25/06:00pm 19.6 13.4 7.7 46 6.1 SSW 30 41 16 22 1016.4 1016.3 0.0
25/05:30pm 21.5 15.4 8.3 42 6.9 SSW 30 41 16 22 1016.5 1016.4 0.0
25/05:00pm 20.1 13.7 7.1 43 6.6 SSW 30 39 16 21 1016.4 1016.3 0.0
25/04:30pm 20.3 13.9 7.1 42 6.7 SSW 30 41 16 22 1016.5 1016.4 0.0
25/04:00pm 21.0 14.2 5.1 35 7.8 SSW 30 41 16 22 1016.5 1016.4 0.0
25/03:30pm 20.4 14.4 5.4 37 7.4 S 26 37 14 20 1016.6 1016.5 0.0
25/03:00pm 20.3 14.1 6.1 39 7.1 S 28 37 15 20 1016.6 1016.5 0.0
25/02:30pm 19.3 13.3 5.4 40 6.8 S 26 39 14 21 1016.8 1016.7 0.0
25/02:00pm 20.2 14.3 5.6 38 7.2 S 26 35 14 19 1016.6 1016.5 0.0
25/01:30pm 21.3 15.4 5.9 36 7.7 S 26 39 14 21 1016.7 1016.6 0.0
25/01:00pm 20.8 14.3 6.5 39 7.2 S 30 39 16 21 1016.6 1016.5 0.0
25/12:30pm 19.9 13.5 7.1 43 6.5 S 30 43 16 23 1016.3 1016.2 0.0
25/12:00pm 20.8 14.5 7.6 42 6.8 SSE 30 41 16 22 1016.1 1016.0 0.0
25/11:30am 20.5 14.4 8.4 45 6.3 SSE 30 43 16 23 1016.2 1016.1 0.0
25/11:00am 20.3 14.4 9.1 48 5.9 S 30 41 16 22 1016.0 1015.9 0.0
25/10:30am 20.1 14.7 9.6 51 5.6 S 28 39 15 21 1016.2 1016.1 0.0
25/10:00am 20.5 15.2 6.9 41 6.9 S 24 35 13 19 1016.2 1016.1 0.0
25/09:30am 19.9 14.4 7.6 45 6.3 SSE 26 35 14 19 1015.8 1015.7 0.0
25/09:00am 19.7 14.8 8.6 48 5.8 S 24 32 13 17 1015.7 1015.6 0.0
25/08:30am 18.9 14.4 8.5 51 5.4 S 22 28 12 15 1015.3 1015.2 0.0
25/08:00am 18.5 14.5 9.1 54 4.9 S 20 26 11 14 1015.1 1015.0 0.0
25/07:30am 17.8 14.8 10.5 62 3.9 S 17 24 9 13 1014.8 1014.7 0.0
25/07:00am 16.2 14.2 11.4 73 2.6 SSE 13 15 7 8 1014.2 1014.1 0.0
25/06:30am 16.1 14.4 11.3 73 2.6 SSE 11 13 6 7 1014.0 1013.9 0.0
25/06:00am 16.6 14.3 11.6 72 2.7 SSE 15 20 8 11 1013.5 1013.4 0.0
25/05:30am 17.4 14.6 11.3 67 3.3 SSE 17 22 9 12 1013.1 1013.0 0.0
25/05:00am 18.0 15.2 11.2 64 3.7 S 17 22 9 12 1013.0 1012.9 0.0
25/04:30am 18.1 15.1 11.9 67 3.4 S 19 26 10 14 1013.0 1012.9 0.0
25/04:00am 18.4 15.3 12.3 67 3.4 SSE 20 28 11 15 1012.8 1012.7 0.0
25/03:30am 18.5 15.8 12.8 69 3.2 S 19 24 10 13 1012.6 1012.5 0.0
25/03:00am 18.3 16.0 13.0 71 3.0 S 17 24 9 13 1012.8 1012.7 0.0
25/02:30am 18.4 16.1 13.1 71 3.0 S 17 24 9 13 1012.9 1012.8 0.0
25/02:00am 18.4 15.7 13.5 73 2.8 S 20 26 11 14 1012.8 1012.7 0.0
25/01:30am 18.7 16.2 14.2 75 2.6 S 20 28 11 15 1012.9 1012.8 0.0
25/01:00am 19.0 15.9 14.5 75 2.6 S 24 32 13 17 1013.1 1013.0 0.0
25/12:30am 19.5 16.4 13.4 68 3.5 SSW 22 28 12 15 1013.2 1013.1 0.0
25/12:00am 19.8 16.9 12.9 64 3.9 SSW 20 26 11 14 1013.1 1013.0 0.0
 
Date/Time
CDT
Temp
°C
App
Temp
°C
Dew
Point
Rel
Hum
%
Delta-T
°C
Wind Press
QNH
hPa
Press
MSL
hPa
Rain
since 9 am
mm
Dir
 
Spd
km/h
Gust
km/h
Spd
kts
Gust
kts
24/11:30pm 19.8 16.5 12.9 64 3.9 SSW 22 30 12 16 1013.2 1013.1 0.0
24/11:00pm 19.8 15.6 12.5 62 4.1 SSW 26 33 14 18 1013.1 1013.0 0.0
24/10:30pm 19.6 15.5 13.7 68 3.4 SW 28 35 15 19 1013.0 1012.9 0.0
24/10:00pm 19.7 15.6 13.8 69 3.4 SW 28 37 15 20 1012.8 1012.7 0.0
24/09:30pm 19.9 15.5 13.0 64 3.9 SW 28 35 15 19 1012.6 1012.5 0.0
24/09:00pm 20.1 16.3 13.5 66 3.8 SW 26 33 14 18 1012.4 1012.3 0.0

Other Formats:

Comma delimited format used in spreadsheet applications
http://www.bom.gov.au/fwo/IDS60801/IDS60801.94653.axf

JavaScript Object Notation format (JSON) in row-major order
http://www.bom.gov.au/fwo/IDS60801/IDS60801.94653.json